createdAt,value
2018-11-03T00:00:55.869Z,10.40
2018-11-03T00:02:59.575Z,9.43
2018-11-03T00:05:03.324Z,9.10
2018-11-03T00:07:07.348Z,8.07
2018-11-03T00:09:11.676Z,9.20
2018-11-03T00:11:15.414Z,11.50
2018-11-03T00:13:19.132Z,13.37
2018-11-03T00:15:22.960Z,15.57
2018-11-03T00:17:26.713Z,13.87
2018-11-03T00:19:30.502Z,11.73
2018-11-03T00:21:34.205Z,9.00
2018-11-03T00:23:37.916Z,7.20
2018-11-03T00:25:41.716Z,6.93
2018-11-03T00:27:45.379Z,6.63
2018-11-03T00:29:49.146Z,6.90
2018-11-03T00:31:52.847Z,5.80
2018-11-03T00:33:56.570Z,5.30
2018-11-03T00:36:00.358Z,5.60
2018-11-03T00:38:04.027Z,6.40
2018-11-03T00:40:10.192Z,5.73
2018-11-03T00:42:14.612Z,5.67
2018-11-03T00:44:18.291Z,5.83
2018-11-03T00:46:22.009Z,5.90
2018-11-03T00:48:25.722Z,6.10
2018-11-03T00:50:29.443Z,5.10
2018-11-03T00:52:33.124Z,5.33
2018-11-03T00:54:37.432Z,6.20
2018-11-03T00:56:41.204Z,5.03
2018-11-03T00:58:44.909Z,6.00
2018-11-03T01:00:48.621Z,5.67
2018-11-03T01:02:52.419Z,5.90
2018-11-03T01:04:56.195Z,7.30
2018-11-03T01:06:59.905Z,6.33
2018-11-03T01:09:03.842Z,6.37
2018-11-03T01:11:07.595Z,7.30
2018-11-03T01:13:11.311Z,7.67
2018-11-03T01:15:16.190Z,9.63
2018-11-03T01:17:19.945Z,12.10
2018-11-03T01:19:23.625Z,12.33
2018-11-03T01:21:27.402Z,10.30
2018-11-03T01:23:31.222Z,9.00
2018-11-03T01:25:35.531Z,8.70
2018-11-03T01:27:39.410Z,8.53
2018-11-03T01:29:43.137Z,7.70
2018-11-03T01:31:46.861Z,6.93
2018-11-03T01:33:50.725Z,6.50
2018-11-03T01:35:54.424Z,6.90
2018-11-03T01:37:58.169Z,6.50
2018-11-03T01:40:01.873Z,7.03
2018-11-03T01:42:05.926Z,7.97
2018-11-03T01:44:09.999Z,10.77
2018-11-03T01:46:13.743Z,10.23
2018-11-03T01:48:17.470Z,11.20
2018-11-03T01:50:21.179Z,11.93
2018-11-03T01:52:24.923Z,11.33
2018-11-03T01:54:28.619Z,12.23
2018-11-03T01:56:32.923Z,10.63
2018-11-03T01:58:36.621Z,11.80
2018-11-03T02:00:40.338Z,10.13
2018-11-03T02:02:44.121Z,9.60
2018-11-03T02:04:47.842Z,9.50
2018-11-03T02:06:51.565Z,9.03
2018-11-03T02:08:55.271Z,9.53
2018-11-03T02:10:59.037Z,8.63
2018-11-03T02:13:02.803Z,8.10
2018-11-03T02:15:06.692Z,8.87
2018-11-03T02:17:10.421Z,7.70
2018-11-03T02:19:14.128Z,7.50
2018-11-03T02:21:17.854Z,7.80
2018-11-03T02:23:21.594Z,7.13
2018-11-03T02:25:25.304Z,6.73
2018-11-03T02:27:29.059Z,7.50
2018-11-03T02:29:32.801Z,6.70
2018-11-03T02:31:36.477Z,6.80
2018-11-03T02:33:40.291Z,6.17
2018-11-03T02:35:44.209Z,6.67
2018-11-03T02:37:47.917Z,6.47
2018-11-03T02:39:51.579Z,6.17
2018-11-03T02:41:55.465Z,6.30
2018-11-03T02:43:59.172Z,6.00
2018-11-03T02:46:02.866Z,6.70
2018-11-03T02:48:06.716Z,7.07
2018-11-03T02:50:12.863Z,6.00
2018-11-03T02:52:16.619Z,6.17
2018-11-03T02:54:20.337Z,6.77
2018-11-03T02:56:24.020Z,7.10
2018-11-03T02:58:27.769Z,7.20
2018-11-03T03:00:31.530Z,6.23
2018-11-03T03:02:35.308Z,7.30
2018-11-03T03:04:39.005Z,8.30
2018-11-03T03:06:42.743Z,6.73
2018-11-03T03:08:46.864Z,7.60
2018-11-03T03:10:50.660Z,7.40
2018-11-03T03:12:54.390Z,7.30
2018-11-03T03:14:58.104Z,7.20
2018-11-03T03:17:01.867Z,7.10
2018-11-03T03:19:06.020Z,6.87
2018-11-03T03:21:09.725Z,7.50
2018-11-03T03:23:13.486Z,7.70
2018-11-03T03:25:17.451Z,7.50
2018-11-03T03:27:21.189Z,8.30
2018-11-03T03:29:24.980Z,6.97
2018-11-03T03:31:28.634Z,7.43
2018-11-03T03:33:32.438Z,7.20
2018-11-03T03:35:36.131Z,8.17
2018-11-03T03:37:39.842Z,8.07
2018-11-03T03:39:44.103Z,7.90
2018-11-03T03:41:47.820Z,7.60
2018-11-03T03:43:51.565Z,8.70
2018-11-03T03:45:55.283Z,7.93
2018-11-03T03:47:59.056Z,7.63
2018-11-03T03:50:02.807Z,6.70
2018-11-03T03:52:06.498Z,7.60
2018-11-03T03:54:10.233Z,7.20
2018-11-03T03:56:14.060Z,7.70
2018-11-03T03:58:17.797Z,7.53
2018-11-03T04:00:21.557Z,8.20
2018-11-03T04:02:25.292Z,6.80
2018-11-03T04:04:29.273Z,6.40
2018-11-03T04:06:33.001Z,7.47
2018-11-03T04:08:36.739Z,7.13
2018-11-03T04:10:40.429Z,6.87
2018-11-03T04:12:44.207Z,7.00
2018-11-03T04:14:47.954Z,6.93
2018-11-03T04:16:51.987Z,7.20
2018-11-03T04:18:55.711Z,7.80
2018-11-03T04:20:59.414Z,8.43
2018-11-03T04:23:03.161Z,7.83
2018-11-03T04:25:06.935Z,7.93
2018-11-03T04:27:10.636Z,8.47
2018-11-03T04:29:14.401Z,7.93
2018-11-03T04:31:18.166Z,7.57
2018-11-03T04:33:22.301Z,7.77
2018-11-03T04:35:26.006Z,8.07
2018-11-03T04:37:29.680Z,8.13
2018-11-03T04:39:33.530Z,8.33
2018-11-03T04:41:37.207Z,9.03
2018-11-03T04:43:40.974Z,8.47
2018-11-03T04:45:44.735Z,7.70
2018-11-03T04:47:48.435Z,8.03
2018-11-03T04:49:52.280Z,8.57
2018-11-03T04:51:56.093Z,8.13
2018-11-03T04:53:59.817Z,8.13
2018-11-03T04:56:03.595Z,8.17
2018-11-03T04:58:07.273Z,9.00
2018-11-03T05:00:11.594Z,9.03
2018-11-03T05:02:15.291Z,8.87
2018-11-03T05:04:19.025Z,10.20
2018-11-03T05:06:22.759Z,8.70
2018-11-03T05:08:26.505Z,8.10
2018-11-03T05:10:30.326Z,8.63
2018-11-03T05:12:33.976Z,8.60
2018-11-03T05:14:37.808Z,8.23
2018-11-03T05:16:41.535Z,8.77
2018-11-03T05:18:45.647Z,8.33
2018-11-03T05:20:49.361Z,8.73
2018-11-03T05:22:53.081Z,8.30
2018-11-03T05:24:56.762Z,9.83
2018-11-03T05:27:00.551Z,8.13
2018-11-03T05:29:04.252Z,9.37
2018-11-03T05:31:08.090Z,9.17
2018-11-03T05:33:11.828Z,9.23
2018-11-03T05:35:15.711Z,8.80
2018-11-03T05:37:19.475Z,8.63
2018-11-03T05:39:23.291Z,9.40
2018-11-03T05:41:27.062Z,9.10
2018-11-03T05:43:30.839Z,10.07
2018-11-03T05:45:34.644Z,9.23
2018-11-03T05:47:38.381Z,9.20
2018-11-03T05:49:42.076Z,8.80
2018-11-03T05:51:45.845Z,9.03
2018-11-03T05:53:49.613Z,9.70
2018-11-03T05:55:53.312Z,8.57
2018-11-03T05:57:57.102Z,8.80
2018-11-03T06:00:00.844Z,8.80
2018-11-03T06:02:04.652Z,9.60
2018-11-03T06:04:08.366Z,9.67
2018-11-03T06:06:12.070Z,10.13
2018-11-03T06:08:15.850Z,9.03
2018-11-03T06:10:19.573Z,9.33
2018-11-03T06:12:23.309Z,8.13
2018-11-03T06:14:27.036Z,8.07
2018-11-03T06:16:30.735Z,8.33
2018-11-03T06:18:34.473Z,8.37
2018-11-03T06:20:38.245Z,8.37
2018-11-03T06:22:42.091Z,8.90
2018-11-03T06:24:45.778Z,8.90
2018-11-03T06:26:49.502Z,8.73
2018-11-03T06:28:53.265Z,8.93
2018-11-03T06:30:56.991Z,9.30
2018-11-03T06:33:00.747Z,9.37
2018-11-03T06:35:04.713Z,9.50
2018-11-03T06:37:08.487Z,10.20
2018-11-03T06:39:12.258Z,9.97
2018-11-03T06:41:16.166Z,9.83
2018-11-03T06:43:20.018Z,10.10
2018-11-03T06:45:23.761Z,12.87
2018-11-03T06:47:27.683Z,12.47
2018-11-03T06:49:31.274Z,12.80
2018-11-03T06:51:34.984Z,12.60
2018-11-03T06:53:38.747Z,10.97
2018-11-03T06:55:42.458Z,10.73
2018-11-03T06:57:46.158Z,10.50
2018-11-03T06:59:50.730Z,10.90
2018-11-03T07:01:54.456Z,10.00
2018-11-03T07:03:58.198Z,9.90
2018-11-03T07:06:02.312Z,11.13
2018-11-03T07:08:06.484Z,10.47
2018-11-03T07:10:11.258Z,11.77
2018-11-03T07:12:15.166Z,10.90
2018-11-03T07:14:18.719Z,10.40
2018-11-03T07:16:22.428Z,11.10
2018-11-03T07:18:28.025Z,10.60
2018-11-03T07:20:31.747Z,9.10
2018-11-03T07:22:35.451Z,11.07
2018-11-03T07:24:39.445Z,13.30
2018-11-03T07:26:43.260Z,13.67
2018-11-03T07:28:47.007Z,14.63
2018-11-03T07:30:50.762Z,14.00
2018-11-03T07:32:54.475Z,14.40
2018-11-03T07:34:58.261Z,14.80
2018-11-03T07:37:02.023Z,13.80
2018-11-03T07:39:07.808Z,13.70
2018-11-03T07:41:11.649Z,14.27
2018-11-03T07:43:15.507Z,13.90
2018-11-03T07:45:19.269Z,15.23
2018-11-03T07:47:23.185Z,15.00
2018-11-03T07:49:27.090Z,12.93
2018-11-03T07:51:31.667Z,12.13
2018-11-03T07:53:35.495Z,12.37
2018-11-03T07:55:39.710Z,12.73
2018-11-03T07:57:44.194Z,11.13
2018-11-03T07:59:48.268Z,13.30
2018-11-03T08:01:51.976Z,12.03
2018-11-03T08:03:56.813Z,10.87
2018-11-03T08:06:03.627Z,11.23
2018-11-03T08:08:07.490Z,11.47
2018-11-03T08:10:11.812Z,11.20
2018-11-03T08:12:15.487Z,12.77
2018-11-03T08:14:21.774Z,11.80
2018-11-03T08:16:25.627Z,11.37
2018-11-03T08:18:29.476Z,11.40
2018-11-03T08:20:34.460Z,11.30
2018-11-03T08:22:38.468Z,12.03
2018-11-03T08:24:42.621Z,12.20
2018-11-03T08:26:46.537Z,12.20
2018-11-03T08:28:50.312Z,11.50
2018-11-03T08:30:54.074Z,11.70
2018-11-03T08:32:58.853Z,12.00
2018-11-03T08:35:02.635Z,12.27
2018-11-03T08:37:07.659Z,12.80
2018-11-03T08:39:11.884Z,11.70
2018-11-03T08:41:15.691Z,12.83
2018-11-03T08:43:20.414Z,12.60
2018-11-03T08:45:27.908Z,11.57
2018-11-03T08:47:31.747Z,12.70
2018-11-03T08:49:36.233Z,11.60
2018-11-03T08:51:39.994Z,11.50
2018-11-03T08:53:43.783Z,12.23
2018-11-03T08:55:48.659Z,12.47
2018-11-03T08:57:52.583Z,13.10
2018-11-03T08:59:57.111Z,12.70
2018-11-03T09:02:00.784Z,11.53
2018-11-03T09:04:05.214Z,12.57
2018-11-03T09:06:09.069Z,11.70
2018-11-03T09:08:19.461Z,11.43
2018-11-03T09:10:23.240Z,12.13
2018-11-03T09:12:27.472Z,11.80
2018-11-03T09:14:31.381Z,12.07
2018-11-03T09:16:35.277Z,11.20
2018-11-03T09:18:39.122Z,11.50
2018-11-03T09:20:42.975Z,10.60
2018-11-03T09:22:46.896Z,10.77
2018-11-03T09:24:50.727Z,11.47
2018-11-03T09:26:54.778Z,11.37
2018-11-03T09:28:58.628Z,11.10
2018-11-03T09:31:02.907Z,10.80
2018-11-03T09:33:06.863Z,10.70
2018-11-03T09:35:12.090Z,10.27
2018-11-03T09:37:15.887Z,10.90
2018-11-03T09:39:19.760Z,11.37
2018-11-03T09:41:26.402Z,10.87
2018-11-03T09:43:31.363Z,11.40
2018-11-03T09:45:38.120Z,10.47
2018-11-03T09:47:42.492Z,10.63
2018-11-03T09:49:46.400Z,11.40
2018-11-03T09:51:50.255Z,10.77
2018-11-03T09:53:54.055Z,11.37
2018-11-03T09:55:57.860Z,11.33
2018-11-03T09:58:01.687Z,11.87
2018-11-03T10:00:07.925Z,12.07
2018-11-03T10:02:12.140Z,12.80
2018-11-03T10:04:15.933Z,10.83
2018-11-03T10:06:19.802Z,10.87
2018-11-03T10:08:23.497Z,10.57
2018-11-03T10:10:27.367Z,10.47
2018-11-03T10:12:31.491Z,9.90
2018-11-03T10:14:39.008Z,10.37
2018-11-03T10:16:45.545Z,10.57
2018-11-03T10:18:56.148Z,10.60
2018-11-03T10:21:02.410Z,10.90
2018-11-03T10:23:08.820Z,10.03
2018-11-03T10:25:18.829Z,11.33
2018-11-03T10:27:22.965Z,11.27
2018-11-03T10:29:26.817Z,11.40
2018-11-03T10:31:30.595Z,11.30
2018-11-03T10:33:34.431Z,10.50
2018-11-03T10:35:38.255Z,11.47
2018-11-03T10:37:42.038Z,10.60
2018-11-03T10:39:45.830Z,9.93
2018-11-03T10:41:49.638Z,10.40
2018-11-03T10:43:53.407Z,9.63
2018-11-03T10:45:57.241Z,11.10
2018-11-03T10:48:01.036Z,9.80
2018-11-03T10:50:06.995Z,9.63
2018-11-03T10:52:11.037Z,10.07
2018-11-03T10:54:14.793Z,10.57
2018-11-03T10:56:18.580Z,10.47
2018-11-03T10:58:22.413Z,10.27
2018-11-03T11:00:31.500Z,9.27
2018-11-03T11:02:40.403Z,9.23
2018-11-03T11:04:49.566Z,11.10
2018-11-03T11:06:58.707Z,10.00
2018-11-03T11:09:08.224Z,10.17
2018-11-03T11:11:17.135Z,10.63
2018-11-03T11:13:29.411Z,10.70
2018-11-03T11:15:33.198Z,10.47
2018-11-03T11:17:37.119Z,10.30
2018-11-03T11:19:40.883Z,10.73
2018-11-03T11:21:44.716Z,9.43
2018-11-03T11:23:48.462Z,10.80
2018-11-03T11:25:52.186Z,10.20
2018-11-03T11:27:56.195Z,11.43
2018-11-03T11:30:00.023Z,10.80
2018-11-03T11:32:03.979Z,11.00
2018-11-03T11:34:07.952Z,10.73
2018-11-03T11:36:11.765Z,11.30
2018-11-03T11:38:16.343Z,10.43
2018-11-03T11:40:20.271Z,10.73
2018-11-03T11:42:24.457Z,10.20
2018-11-03T11:44:28.874Z,9.30
2018-11-03T11:46:32.888Z,9.50
2018-11-03T11:48:36.972Z,10.77
2018-11-03T11:50:40.737Z,9.50
2018-11-03T11:52:44.476Z,10.73
2018-11-03T11:54:48.413Z,9.57
2018-11-03T11:56:52.427Z,10.87
2018-11-03T11:58:56.429Z,10.43
2018-11-03T12:01:00.249Z,9.90
2018-11-03T12:03:04.125Z,10.50
2018-11-03T12:05:08.005Z,10.17
2018-11-03T12:07:11.842Z,11.27
2018-11-03T12:09:15.705Z,10.13
2018-11-03T12:11:19.622Z,10.60
2018-11-03T12:13:24.346Z,10.60
2018-11-03T12:15:28.256Z,10.63
2018-11-03T12:17:32.353Z,9.33
2018-11-03T12:19:36.877Z,10.27
2018-11-03T12:21:40.645Z,19.70
2018-11-03T12:23:44.997Z,12.10
2018-11-03T12:25:48.947Z,11.10
2018-11-03T12:27:52.680Z,9.53
2018-11-03T12:29:56.535Z,9.97
2018-11-03T12:32:01.025Z,9.30
2018-11-03T12:34:05.393Z,10.10
2018-11-03T12:36:09.242Z,9.20
2018-11-03T12:38:12.987Z,9.37
2018-11-03T12:40:17.076Z,10.43
2018-11-03T12:42:20.837Z,10.60
2018-11-03T12:44:24.658Z,9.00
2018-11-03T12:46:28.432Z,8.60
2018-11-03T12:48:32.258Z,9.63
2018-11-03T12:50:36.077Z,9.17
2018-11-03T12:52:39.803Z,9.00
2018-11-03T12:54:43.610Z,8.33
2018-11-03T12:56:47.489Z,9.23
2018-11-03T12:58:51.253Z,8.97
2018-11-03T13:00:54.997Z,8.47
2018-11-03T13:02:58.753Z,8.73
2018-11-03T13:05:02.669Z,8.87
2018-11-03T13:07:06.485Z,8.63
2018-11-03T13:09:11.561Z,7.70
2018-11-03T13:11:15.300Z,8.20
2018-11-03T13:13:19.076Z,7.97
2018-11-03T13:15:22.853Z,8.63
2018-11-03T13:17:26.596Z,8.67
2018-11-03T13:19:30.404Z,7.50
2018-11-03T13:21:34.172Z,7.40
2018-11-03T13:23:39.995Z,7.60
2018-11-03T13:25:43.854Z,7.13
2018-11-03T13:27:47.576Z,7.43
2018-11-03T13:29:51.371Z,6.43
2018-11-03T13:31:55.141Z,6.00
2018-11-03T13:33:58.972Z,7.03
2018-11-03T13:36:02.854Z,7.00
2018-11-03T13:38:06.960Z,7.57
2018-11-03T13:40:12.298Z,6.97
2018-11-03T13:42:16.104Z,6.80
2018-11-03T13:44:19.922Z,8.40
2018-11-03T13:46:23.724Z,8.60
2018-11-03T13:48:27.493Z,7.50
2018-11-03T13:50:31.268Z,6.00
2018-11-03T13:52:34.996Z,5.83
2018-11-03T13:54:38.834Z,5.27
2018-11-03T13:56:42.618Z,5.90
2018-11-03T13:58:46.529Z,7.67
2018-11-03T14:00:50.392Z,8.03
2018-11-03T14:02:54.245Z,8.03
2018-11-03T14:04:58.066Z,7.50
2018-11-03T14:07:01.901Z,5.97
2018-11-03T14:09:07.500Z,6.33
2018-11-03T14:11:11.399Z,6.20
2018-11-03T14:13:15.120Z,5.50
2018-11-03T14:15:19.108Z,6.00
2018-11-03T14:17:23.022Z,5.87
2018-11-03T14:19:26.859Z,5.97
2018-11-03T14:21:30.753Z,4.77
2018-11-03T14:23:34.737Z,4.90
2018-11-03T14:25:38.507Z,5.80
2018-11-03T14:27:43.428Z,5.07
2018-11-03T14:29:47.338Z,5.40
2018-11-03T14:31:51.148Z,6.03
2018-11-03T14:33:54.908Z,5.50
2018-11-03T14:35:58.680Z,5.10
2018-11-03T14:38:02.430Z,5.80
2018-11-03T14:40:08.532Z,5.40
2018-11-03T14:42:12.332Z,5.10
2018-11-03T14:44:16.102Z,4.57
2018-11-03T14:46:19.892Z,4.70
2018-11-03T14:48:23.659Z,4.87
2018-11-03T14:50:31.379Z,4.97
2018-11-03T14:52:36.590Z,4.80
2018-11-03T14:54:40.337Z,4.43
2018-11-03T14:56:44.202Z,5.30
2018-11-03T14:58:47.971Z,5.27
2018-11-03T15:00:51.768Z,6.27
2018-11-03T15:02:55.544Z,7.23
2018-11-03T15:04:59.385Z,6.30
2018-11-03T15:07:03.166Z,7.97
2018-11-03T15:09:08.243Z,9.30
2018-11-03T15:11:11.991Z,11.77
2018-11-03T15:13:15.760Z,11.87
2018-11-03T15:15:19.621Z,6.70
2018-11-03T15:17:23.375Z,6.70
2018-11-03T15:19:27.664Z,6.17
2018-11-03T15:21:31.550Z,6.70
2018-11-03T15:23:35.416Z,6.00
2018-11-03T15:25:39.223Z,6.93
2018-11-03T15:27:43.398Z,7.00
2018-11-03T15:29:47.177Z,5.77
2018-11-03T15:31:50.956Z,6.43
2018-11-03T15:33:54.772Z,7.07
2018-11-03T15:35:58.677Z,10.43
2018-11-03T15:38:02.615Z,16.97
2018-11-03T15:40:08.610Z,17.20
2018-11-03T15:42:16.585Z,8.80
2018-11-03T15:44:20.528Z,9.30
2018-11-03T15:46:24.271Z,8.00
2018-11-03T15:48:28.101Z,7.70
2018-11-03T15:50:31.846Z,7.40
2018-11-03T15:52:36.457Z,7.73
2018-11-03T15:54:40.685Z,7.13
2018-11-03T15:56:44.481Z,6.67
2018-11-03T15:58:48.294Z,7.83
2018-11-03T16:00:52.333Z,7.60
2018-11-03T16:02:58.021Z,8.10
2018-11-03T16:05:05.191Z,7.37
2018-11-03T16:07:11.941Z,7.70
2018-11-03T16:09:19.059Z,7.90
2018-11-03T16:11:26.111Z,7.47
2018-11-03T16:13:37.550Z,8.60
2018-11-03T16:15:46.266Z,7.30
2018-11-03T16:17:54.103Z,8.43
2018-11-03T16:20:03.164Z,10.47
2018-11-03T16:22:10.696Z,10.70
2018-11-03T16:24:14.577Z,9.97
2018-11-03T16:26:18.593Z,9.20
2018-11-03T16:28:22.525Z,9.53
2018-11-03T16:30:26.439Z,9.03
2018-11-03T16:32:30.338Z,8.90
2018-11-03T16:34:34.033Z,8.63
2018-11-03T16:36:37.837Z,9.33
2018-11-03T16:38:41.676Z,8.80
2018-11-03T16:40:45.566Z,8.60
2018-11-03T16:42:49.336Z,8.70
2018-11-03T16:44:53.201Z,8.80
2018-11-03T16:46:57.010Z,8.10
2018-11-03T16:49:00.804Z,9.50
2018-11-03T16:51:05.582Z,10.07
2018-11-03T16:53:09.378Z,8.23
2018-11-03T16:55:14.385Z,10.20
2018-11-03T16:57:18.150Z,10.07
2018-11-03T16:59:22.200Z,10.10
2018-11-03T17:01:25.952Z,10.80
2018-11-03T17:03:30.619Z,9.73
2018-11-03T17:05:34.409Z,11.23
2018-11-03T17:07:38.269Z,15.50
2018-11-03T17:09:42.488Z,18.20
2018-11-03T17:11:46.334Z,20.03
2018-11-03T17:13:50.223Z,20.90
2018-11-03T17:15:53.986Z,19.00
2018-11-03T17:17:58.395Z,17.10
2018-11-03T17:20:02.768Z,14.70
2018-11-03T17:22:06.561Z,12.00
2018-11-03T17:24:10.562Z,10.50
2018-11-03T17:26:14.424Z,10.00
2018-11-03T17:28:18.409Z,10.47
2018-11-03T17:30:22.487Z,11.70
2018-11-03T17:32:26.347Z,10.63
2018-11-03T17:34:32.150Z,9.63
2018-11-03T17:36:38.023Z,11.30
2018-11-03T17:38:42.280Z,11.77
2018-11-03T17:40:46.374Z,9.90
2018-11-03T17:42:50.182Z,8.90
2018-11-03T17:44:54.113Z,8.00
2018-11-03T17:46:57.944Z,8.60
2018-11-03T17:49:01.692Z,8.50
2018-11-03T17:51:05.873Z,8.83
2018-11-03T17:53:09.633Z,10.63
2018-11-03T17:55:13.375Z,11.20
2018-11-03T17:57:17.172Z,12.07
2018-11-03T17:59:20.917Z,13.70
2018-11-03T18:01:24.795Z,12.17
2018-11-03T18:03:28.462Z,13.20
2018-11-03T18:05:32.184Z,13.40
2018-11-03T18:07:36.167Z,13.70
2018-11-03T18:09:39.919Z,14.53
2018-11-03T18:11:43.598Z,16.30
2018-11-03T18:13:47.287Z,15.77
2018-11-03T18:15:50.992Z,17.27
2018-11-03T18:17:54.673Z,20.67
2018-11-03T18:19:58.428Z,18.23
2018-11-03T18:22:02.925Z,17.87
2018-11-03T18:24:07.269Z,19.30
2018-11-03T18:26:11.146Z,21.07
2018-11-03T18:28:14.797Z,17.30
2018-11-03T18:30:18.655Z,21.00
2018-11-03T18:32:22.359Z,20.40
2018-11-03T18:34:26.325Z,20.03
2018-11-03T18:36:30.022Z,20.63
2018-11-03T18:38:34.116Z,18.60
2018-11-03T18:40:37.838Z,18.30
2018-11-03T18:42:41.538Z,18.50
2018-11-03T18:44:45.300Z,18.23
2018-11-03T18:46:49.101Z,17.03
2018-11-03T18:48:52.776Z,14.93
2018-11-03T18:50:56.496Z,14.40
2018-11-03T18:53:00.273Z,13.80
2018-11-03T18:55:04.141Z,13.30
2018-11-03T18:57:07.856Z,12.13
2018-11-03T18:59:12.468Z,12.03
2018-11-03T19:01:16.204Z,12.73
2018-11-03T19:03:19.900Z,11.47
2018-11-03T19:05:23.689Z,12.07
2018-11-03T19:07:27.461Z,11.77
2018-11-03T19:09:31.242Z,10.20
2018-11-03T19:11:34.941Z,11.00
2018-11-03T19:13:39.051Z,10.50
2018-11-03T19:15:42.779Z,9.30
2018-11-03T19:17:46.497Z,9.23
2018-11-03T19:19:50.193Z,8.60
2018-11-03T19:21:53.970Z,9.90
2018-11-03T19:23:58.021Z,8.37
2018-11-03T19:26:01.770Z,10.20
2018-11-03T19:28:05.711Z,9.90
2018-11-03T19:30:11.106Z,10.50
2018-11-03T19:32:14.830Z,10.00
2018-11-03T19:34:18.574Z,16.67
2018-11-03T19:36:22.418Z,27.43
2018-11-03T19:38:26.154Z,27.13
2018-11-03T19:40:29.888Z,22.83
2018-11-03T19:42:33.666Z,23.20
2018-11-03T19:44:37.403Z,16.87
2018-11-03T19:46:41.141Z,17.10
2018-11-03T19:48:45.300Z,15.43
2018-11-03T19:50:49.125Z,14.60
2018-11-03T19:52:52.840Z,14.33
2018-11-03T19:54:56.580Z,15.13
2018-11-03T19:57:00.366Z,14.27
2018-11-03T19:59:05.918Z,16.90
2018-11-03T20:01:09.684Z,18.90
2018-11-03T20:03:13.544Z,19.93
2018-11-03T20:05:17.403Z,23.67
2018-11-03T20:07:21.291Z,28.23
2018-11-03T20:09:24.976Z,28.67
2018-11-03T20:11:28.836Z,29.57
2018-11-03T20:13:32.547Z,28.67
2018-11-03T20:15:36.312Z,27.87
2018-11-03T20:17:40.699Z,27.60
2018-11-03T20:19:44.412Z,27.47
2018-11-03T20:21:48.191Z,26.90
2018-11-03T20:23:51.935Z,25.27
2018-11-03T20:25:55.720Z,18.30
2018-11-03T20:27:59.823Z,17.00
2018-11-03T20:30:03.516Z,16.37
2018-11-03T20:32:07.240Z,14.87
2018-11-03T20:34:11.029Z,15.40
2018-11-03T20:36:14.983Z,14.50
2018-11-03T20:38:18.724Z,15.03
2018-11-03T20:40:22.424Z,13.03
2018-11-03T20:42:26.422Z,14.17
2018-11-03T20:44:30.127Z,14.03
2018-11-03T20:46:33.903Z,13.03
2018-11-03T20:48:37.675Z,13.37
2018-11-03T20:50:41.402Z,13.40
2018-11-03T20:52:45.150Z,13.33
2018-11-03T20:54:48.855Z,14.50
2018-11-03T20:56:54.270Z,11.77
2018-11-03T20:58:58.026Z,12.77
2018-11-03T21:01:01.901Z,12.93
2018-11-03T21:03:05.650Z,12.83
2018-11-03T21:05:10.646Z,12.43
2018-11-03T21:07:14.537Z,13.03
2018-11-03T21:09:18.246Z,13.60
2018-11-03T21:11:21.944Z,12.83
2018-11-03T21:13:25.709Z,13.83
2018-11-03T21:15:29.406Z,13.07
2018-11-03T21:17:33.108Z,13.97
2018-11-03T21:19:37.675Z,14.60
2018-11-03T21:21:41.787Z,13.90
2018-11-03T21:23:45.517Z,14.13
2018-11-03T21:25:49.261Z,13.50
2018-11-03T21:27:53.011Z,15.07
2018-11-03T21:29:56.834Z,13.23
2018-11-03T21:32:00.598Z,14.07
2018-11-03T21:34:04.320Z,13.40
2018-11-03T21:36:08.040Z,13.40
2018-11-03T21:38:11.760Z,14.57
2018-11-03T21:40:15.668Z,17.77
2018-11-03T21:42:19.363Z,18.40
2018-11-03T21:44:23.793Z,20.10
2018-11-03T21:46:27.563Z,17.80
2018-11-03T21:48:31.600Z,19.17
2018-11-03T21:50:35.708Z,16.57
2018-11-03T21:52:39.685Z,15.77
2018-11-03T21:54:43.392Z,14.90
2018-11-03T21:56:47.135Z,15.93
2018-11-03T21:58:50.849Z,13.67
2018-11-03T22:00:54.539Z,12.67
2018-11-03T22:02:58.990Z,13.67
2018-11-03T22:05:02.701Z,13.03
2018-11-03T22:07:06.545Z,14.20
2018-11-03T22:09:11.985Z,14.97
2018-11-03T22:11:15.738Z,15.60
2018-11-03T22:13:19.464Z,14.73
2018-11-03T22:15:23.200Z,16.00
2018-11-03T22:17:26.942Z,15.07
2018-11-03T22:19:30.661Z,16.17
2018-11-03T22:21:34.400Z,14.53
2018-11-03T22:23:38.093Z,15.00
2018-11-03T22:25:42.374Z,14.27
2018-11-03T22:27:46.108Z,15.83
2018-11-03T22:29:49.841Z,13.43
2018-11-03T22:31:53.596Z,14.73
2018-11-03T22:33:57.360Z,13.70
2018-11-03T22:36:01.077Z,13.53
2018-11-03T22:38:04.802Z,13.63
2018-11-03T22:40:09.023Z,13.10
2018-11-03T22:42:12.768Z,12.77
2018-11-03T22:44:16.753Z,14.00
2018-11-03T22:46:20.465Z,15.57
2018-11-03T22:48:24.458Z,13.47
2018-11-03T22:50:28.140Z,13.77
2018-11-03T22:52:31.877Z,15.57
2018-11-03T22:54:36.582Z,15.97
2018-11-03T22:56:40.287Z,16.50
2018-11-03T22:58:44.398Z,15.13
2018-11-03T23:00:53.443Z,15.10
2018-11-03T23:02:57.208Z,14.30
2018-11-03T23:05:01.490Z,14.27
2018-11-03T23:07:05.686Z,14.60
2018-11-03T23:09:09.462Z,14.60
2018-11-03T23:11:13.180Z,14.50
2018-11-03T23:13:16.916Z,14.27
2018-11-03T23:15:20.682Z,16.97
2018-11-03T23:17:24.438Z,15.40
2018-11-03T23:19:28.249Z,15.57
2018-11-03T23:21:32.049Z,15.03
2018-11-03T23:23:35.898Z,14.90
2018-11-03T23:25:39.692Z,13.60
2018-11-03T23:27:43.480Z,14.67
2018-11-03T23:29:47.425Z,14.30
2018-11-03T23:31:51.183Z,14.00
2018-11-03T23:33:55.038Z,14.20
2018-11-03T23:35:58.776Z,14.10
2018-11-03T23:38:03.419Z,13.93
2018-11-03T23:40:08.746Z,15.03
2018-11-03T23:42:12.454Z,13.63
2018-11-03T23:44:16.238Z,14.83
2018-11-03T23:46:20.006Z,14.43
2018-11-03T23:48:23.725Z,13.80
2018-11-03T23:50:27.616Z,14.23
2018-11-03T23:52:34.009Z,13.90
2018-11-03T23:54:37.960Z,13.33
2018-11-03T23:56:41.781Z,16.03
2018-11-03T23:58:46.107Z,16.00
